createdAt,value
2018-05-24T00:01:18.025Z,10.98
2018-05-24T00:03:45.480Z,10.40
2018-05-24T00:06:12.941Z,10.48
2018-05-24T00:08:40.403Z,11.52
2018-05-24T00:11:07.882Z,10.80
2018-05-24T00:13:35.341Z,11.18
2018-05-24T00:16:02.807Z,11.32
2018-05-24T00:18:30.261Z,10.20
2018-05-24T00:20:57.726Z,10.10
2018-05-24T00:23:25.181Z,9.82
2018-05-24T00:25:52.642Z,10.65
2018-05-24T00:28:20.076Z,9.63
2018-05-24T00:30:48.302Z,11.23
2018-05-24T00:33:15.738Z,11.32
2018-05-24T00:35:43.206Z,11.60
2018-05-24T00:38:10.658Z,12.68
2018-05-24T00:40:38.117Z,11.55
2018-05-24T00:43:05.567Z,11.43
2018-05-24T00:45:33.779Z,11.30
2018-05-24T00:48:01.235Z,11.15
2018-05-24T00:50:28.695Z,11.60
2018-05-24T00:52:56.153Z,12.23
2018-05-24T00:55:35.336Z,12.50
2018-05-24T00:58:02.782Z,12.27
2018-05-24T01:00:30.235Z,11.57
2018-05-24T01:02:57.684Z,13.00
2018-05-24T01:05:25.144Z,12.37
2018-05-24T01:07:52.596Z,12.45
2018-05-24T01:10:20.064Z,12.73
2018-05-24T01:12:47.525Z,12.40
2018-05-24T01:15:14.968Z,13.45
2018-05-24T01:17:42.426Z,12.40
2018-05-24T01:20:10.641Z,11.38
2018-05-24T01:22:38.112Z,11.27
2018-05-24T01:25:05.557Z,12.05
2018-05-24T01:27:33.014Z,11.45
2018-05-24T01:30:00.475Z,12.45
2018-05-24T01:32:27.929Z,12.50
2018-05-24T01:34:55.373Z,13.07
2018-05-24T01:37:35.505Z,12.35
2018-05-24T01:40:02.969Z,13.43
2018-05-24T01:42:30.417Z,12.57
2018-05-24T01:44:57.876Z,12.80
2018-05-24T01:47:25.336Z,13.60
2018-05-24T01:49:52.778Z,13.65
2018-05-24T01:52:20.241Z,14.02
2018-05-24T01:54:47.700Z,14.98
2018-05-24T01:57:15.161Z,15.23
2018-05-24T01:59:42.614Z,15.32
2018-05-24T02:02:10.074Z,15.45
2018-05-24T02:04:37.534Z,14.43
2018-05-24T02:07:05.001Z,14.60
2018-05-24T02:09:32.463Z,14.43
2018-05-24T02:11:59.917Z,15.32
2018-05-24T02:14:27.366Z,14.90
2018-05-24T02:16:55.583Z,16.58
2018-05-24T02:19:23.045Z,15.48
2018-05-24T02:21:50.495Z,14.80
2018-05-24T02:24:17.947Z,16.27
2018-05-24T02:26:45.389Z,14.32
2018-05-24T02:29:13.631Z,15.80
2018-05-24T02:31:41.070Z,16.20
2018-05-24T02:34:08.543Z,16.80
2018-05-24T02:36:36.001Z,16.80
2018-05-24T02:39:03.485Z,16.15
2018-05-24T02:41:30.938Z,16.45
2018-05-24T02:43:58.389Z,15.30
2018-05-24T02:46:25.831Z,15.52
2018-05-24T02:48:53.290Z,15.02
2018-05-24T02:51:20.751Z,16.58
2018-05-24T02:53:48.217Z,15.82
2018-05-24T02:56:15.741Z,15.52
2018-05-24T02:58:43.116Z,15.77
2018-05-24T03:01:11.340Z,16.20
2018-05-24T03:03:38.801Z,16.40
2018-05-24T03:06:06.255Z,16.27
2018-05-24T03:08:33.709Z,17.35
2018-05-24T03:11:01.163Z,17.87
2018-05-24T03:13:28.601Z,16.67
2018-05-24T03:15:56.824Z,17.15
2018-05-24T03:18:24.275Z,19.48
2018-05-24T03:20:51.748Z,19.23
2018-05-24T03:23:19.202Z,19.73
2018-05-24T03:25:46.664Z,19.20
2018-05-24T03:28:14.125Z,21.02
2018-05-24T03:30:41.588Z,20.90
2018-05-24T03:33:09.038Z,19.58
2018-05-24T03:35:36.508Z,21.90
2018-05-24T03:38:03.958Z,21.23
2018-05-24T03:40:31.427Z,19.05
2018-05-24T03:42:58.863Z,17.98
2018-05-24T03:45:27.089Z,19.58
2018-05-24T03:47:54.549Z,19.20
2018-05-24T03:50:22.012Z,18.92
2018-05-24T03:52:49.470Z,19.80
2018-05-24T03:55:16.932Z,19.80
2018-05-24T03:57:44.464Z,21.20
2018-05-24T04:00:23.758Z,19.77
2018-05-24T04:03:03.144Z,19.62
2018-05-24T04:05:30.610Z,18.98
2018-05-24T04:07:58.066Z,20.77
2018-05-24T04:10:25.519Z,20.37
2018-05-24T04:12:57.628Z,22.20
2018-05-24T04:15:25.092Z,18.95
2018-05-24T04:17:52.547Z,17.83
2018-05-24T04:20:19.999Z,15.77
2018-05-24T04:22:47.444Z,16.08
2018-05-24T04:25:15.722Z,14.70
2018-05-24T04:27:44.421Z,15.52
2018-05-24T04:30:12.652Z,15.10
2018-05-24T04:32:40.121Z,14.45
2018-05-24T04:35:07.617Z,15.02
2018-05-24T04:37:35.045Z,15.00
2018-05-24T04:40:02.553Z,14.60
2018-05-24T04:42:30.114Z,16.05
2018-05-24T04:44:57.577Z,16.30
2018-05-24T04:47:25.037Z,14.23
2018-05-24T04:49:52.490Z,12.68
2018-05-24T04:52:21.367Z,12.30
2018-05-24T04:54:48.829Z,14.68
2018-05-24T04:57:16.280Z,14.55
2018-05-24T04:59:43.732Z,12.93
2018-05-24T05:02:11.212Z,13.00
2018-05-24T05:04:38.675Z,13.57
2018-05-24T05:07:06.137Z,13.70
2018-05-24T05:09:33.600Z,13.00
2018-05-24T05:12:01.064Z,12.90
2018-05-24T05:14:28.524Z,14.00
2018-05-24T05:16:56.005Z,13.23
2018-05-24T05:19:24.298Z,12.82
2018-05-24T05:21:51.687Z,12.57
2018-05-24T05:24:20.045Z,13.48
2018-05-24T05:26:47.509Z,13.23
2018-05-24T05:29:14.968Z,13.02
2018-05-24T05:31:42.434Z,12.93
2018-05-24T05:34:09.885Z,12.95
2018-05-24T05:36:38.102Z,13.90
2018-05-24T05:39:05.556Z,13.65
2018-05-24T05:41:33.014Z,14.98
2018-05-24T05:44:00.482Z,15.60
2018-05-24T05:46:27.944Z,13.10
2018-05-24T05:48:55.405Z,12.90
2018-05-24T05:51:22.868Z,14.70
2018-05-24T05:53:50.328Z,13.55
2018-05-24T05:56:17.774Z,15.07
2018-05-24T05:58:45.996Z,14.80
2018-05-24T06:01:13.432Z,14.43
2018-05-24T06:03:40.900Z,16.15
2018-05-24T06:06:08.354Z,14.75
2018-05-24T06:08:35.824Z,16.12
2018-05-24T06:11:03.291Z,16.27
2018-05-24T06:13:30.749Z,15.63
2018-05-24T06:15:58.196Z,14.68
2018-05-24T06:18:25.652Z,16.40
2018-05-24T06:20:53.932Z,16.50
2018-05-24T06:23:21.408Z,14.87
2018-05-24T06:25:48.849Z,15.93
2018-05-24T06:28:17.078Z,16.92
2018-05-24T06:30:44.542Z,16.70
2018-05-24T06:33:12.005Z,14.52
2018-05-24T06:35:39.464Z,14.45
2018-05-24T06:38:06.917Z,14.77
2018-05-24T06:40:34.439Z,15.50
2018-05-24T06:43:01.840Z,15.32
2018-05-24T06:45:29.293Z,13.62
2018-05-24T06:47:56.752Z,13.98
2018-05-24T06:50:24.205Z,14.02
2018-05-24T06:52:51.684Z,14.05
2018-05-24T06:55:19.144Z,12.65
2018-05-24T06:57:46.605Z,13.90
2018-05-24T07:00:14.064Z,13.27
2018-05-24T07:02:41.516Z,12.60
2018-05-24T07:05:08.969Z,14.48
2018-05-24T07:07:37.194Z,13.30
2018-05-24T07:10:04.656Z,12.50
2018-05-24T07:12:32.127Z,14.27
2018-05-24T07:15:00.355Z,15.32
2018-05-24T07:17:28.581Z,14.77
2018-05-24T07:19:56.039Z,15.55
2018-05-24T07:22:23.493Z,13.77
2018-05-24T07:24:50.951Z,13.68
2018-05-24T07:27:18.404Z,12.75
2018-05-24T07:29:45.874Z,12.68
2018-05-24T07:32:13.316Z,13.23
2018-05-24T07:34:40.796Z,13.00
2018-05-24T07:37:08.236Z,13.05
2018-05-24T07:39:35.734Z,12.65
2018-05-24T07:42:03.150Z,11.02
2018-05-24T07:44:31.368Z,10.93
2018-05-24T07:46:58.817Z,11.48
2018-05-24T07:49:26.283Z,9.77
2018-05-24T07:51:53.743Z,11.70
2018-05-24T07:54:21.186Z,11.30
2018-05-24T07:56:49.431Z,11.70
2018-05-24T07:59:16.877Z,10.90
2018-05-24T08:01:44.376Z,11.23
2018-05-24T08:04:11.781Z,11.07
2018-05-24T08:06:39.232Z,11.32
2018-05-24T08:09:06.697Z,11.00
2018-05-24T08:11:34.173Z,11.23
2018-05-24T08:14:01.627Z,10.80
2018-05-24T08:16:29.086Z,10.73
2018-05-24T08:18:56.545Z,10.45
2018-05-24T08:21:24.009Z,11.20
2018-05-24T08:23:51.475Z,11.02
2018-05-24T08:26:18.927Z,10.57
2018-05-24T08:28:46.368Z,10.95
2018-05-24T08:31:14.593Z,11.20
2018-05-24T08:33:42.043Z,10.65
2018-05-24T08:36:09.493Z,9.55
2018-05-24T08:38:36.949Z,11.00
2018-05-24T08:41:04.392Z,11.05
2018-05-24T08:43:32.604Z,11.80
2018-05-24T08:46:00.064Z,10.88
2018-05-24T08:48:27.515Z,12.02
2018-05-24T08:50:54.977Z,11.10
2018-05-24T08:53:22.503Z,9.98
2018-05-24T08:55:50.630Z,11.25
2018-05-24T08:58:18.088Z,10.57
2018-05-24T09:00:45.536Z,10.35
2018-05-24T09:03:13.748Z,10.57
2018-05-24T09:05:41.212Z,10.77
2018-05-24T09:08:08.662Z,10.48
2018-05-24T09:10:36.122Z,11.05
2018-05-24T09:13:03.584Z,11.55
2018-05-24T09:15:31.044Z,10.75
2018-05-24T09:17:58.494Z,11.12
2018-05-24T09:20:25.972Z,9.13
2018-05-24T09:22:53.424Z,10.32
2018-05-24T09:25:20.903Z,10.07
2018-05-24T09:27:48.413Z,10.02
2018-05-24T09:30:15.857Z,10.35
2018-05-24T09:32:43.314Z,9.95
2018-05-24T09:35:10.773Z,9.13
2018-05-24T09:37:38.230Z,8.80
2018-05-24T09:40:05.680Z,8.43
2018-05-24T09:42:33.140Z,8.00
2018-05-24T09:45:00.582Z,9.25
2018-05-24T09:47:28.042Z,8.20
2018-05-24T09:49:56.260Z,8.02
2018-05-24T09:52:23.714Z,8.43
2018-05-24T09:54:51.153Z,8.73
2018-05-24T09:57:18.615Z,9.45
2018-05-24T09:59:46.055Z,9.45
2018-05-24T10:02:14.288Z,10.18
2018-05-24T10:04:41.751Z,9.32
2018-05-24T10:07:09.194Z,9.75
2018-05-24T10:09:36.650Z,10.43
2018-05-24T10:12:04.119Z,11.00
2018-05-24T10:14:31.575Z,8.32
2018-05-24T10:16:59.048Z,10.27
2018-05-24T10:19:26.505Z,9.43
2018-05-24T10:21:53.950Z,8.52
2018-05-24T10:24:21.399Z,10.27
2018-05-24T10:26:49.620Z,9.10
2018-05-24T10:29:17.081Z,10.23
2018-05-24T10:31:44.530Z,9.30
2018-05-24T10:34:11.991Z,10.40
2018-05-24T10:36:39.443Z,7.95
2018-05-24T10:39:06.881Z,8.85
2018-05-24T10:41:35.104Z,11.12
2018-05-24T10:44:02.560Z,11.32
2018-05-24T10:46:30.022Z,9.23
2018-05-24T10:48:57.485Z,9.77
2018-05-24T10:51:24.936Z,10.57
2018-05-24T10:53:52.408Z,10.05
2018-05-24T10:56:19.858Z,10.02
2018-05-24T10:58:47.332Z,9.77
2018-05-24T11:01:14.796Z,9.57
2018-05-24T11:03:42.258Z,11.40
2018-05-24T11:08:36.404Z,9.85
2018-05-24T11:11:03.863Z,11.27
2018-05-24T11:13:31.316Z,8.70
2018-05-24T11:15:58.776Z,10.15
2018-05-24T11:18:26.244Z,8.82
2018-05-24T11:20:53.680Z,9.05
2018-05-24T11:23:21.136Z,7.40
2018-05-24T11:25:48.580Z,8.98
2018-05-24T11:28:16.806Z,8.20
2018-05-24T11:30:44.255Z,8.98
2018-05-24T11:33:11.707Z,9.45
2018-05-24T11:35:39.150Z,6.45
2018-05-24T11:38:06.608Z,7.97
2018-05-24T11:40:34.824Z,8.57
2018-05-24T11:43:02.307Z,7.62
2018-05-24T11:45:29.713Z,6.12
2018-05-24T11:47:57.164Z,5.18
2018-05-24T11:50:25.378Z,5.62
2018-05-24T11:52:52.839Z,6.22
2018-05-24T11:55:20.301Z,5.53
2018-05-24T11:57:47.737Z,5.62
2018-05-24T12:00:15.963Z,5.05
2018-05-24T12:02:43.407Z,4.90
2018-05-24T12:05:10.860Z,4.28
2018-05-24T12:07:38.316Z,3.92
2018-05-24T12:10:05.773Z,4.05
2018-05-24T12:12:33.208Z,3.80
2018-05-24T12:15:00.677Z,3.97
2018-05-24T12:17:28.896Z,3.80
2018-05-24T12:19:56.338Z,3.33
2018-05-24T12:22:23.780Z,3.60
2018-05-24T12:24:52.010Z,3.22
2018-05-24T12:27:19.453Z,3.47
2018-05-24T12:29:46.912Z,3.40
2018-05-24T12:32:14.360Z,3.25
2018-05-24T12:34:42.576Z,3.08
2018-05-24T12:37:10.014Z,3.40
2018-05-24T12:39:37.467Z,3.00
2018-05-24T12:42:05.702Z,3.80
2018-05-24T12:44:33.154Z,3.70
2018-05-24T12:47:00.685Z,3.50
2018-05-24T12:49:28.089Z,3.70
2018-05-24T12:51:55.527Z,4.55
2018-05-24T12:54:23.003Z,3.80
2018-05-24T12:56:50.448Z,3.40
2018-05-24T12:59:17.881Z,3.78
2018-05-24T13:01:46.105Z,3.55
2018-05-24T13:04:13.569Z,3.10
2018-05-24T13:06:41.006Z,2.80
2018-05-24T13:09:08.447Z,2.75
2018-05-24T13:11:36.667Z,2.53
2018-05-24T13:14:04.114Z,2.37
2018-05-24T13:16:31.573Z,2.40
2018-05-24T13:18:59.020Z,2.22
2018-05-24T13:21:26.476Z,2.50
2018-05-24T13:23:53.926Z,2.62
2018-05-24T13:26:21.372Z,2.80
2018-05-24T13:28:48.821Z,2.80
2018-05-24T13:31:16.275Z,2.55
2018-05-24T13:33:43.717Z,3.40
2018-05-24T13:36:11.183Z,2.72
2018-05-24T13:38:38.658Z,2.97
2018-05-24T13:41:06.117Z,2.90
2018-05-24T13:43:33.567Z,3.10
2018-05-24T13:46:01.023Z,3.40
2018-05-24T13:48:28.474Z,3.03
2018-05-24T13:50:55.934Z,1.80
2018-05-24T13:53:23.385Z,2.30
2018-05-24T13:55:51.612Z,1.85
2018-05-24T13:58:19.054Z,1.87
2018-05-24T14:00:46.499Z,2.42
2018-05-24T14:03:13.950Z,1.90
2018-05-24T14:05:42.186Z,2.10
2018-05-24T14:08:09.641Z,2.33
2018-05-24T14:10:37.090Z,2.30
2018-05-24T14:13:04.571Z,2.28
2018-05-24T14:15:32.027Z,1.85
2018-05-24T14:17:59.491Z,1.90
2018-05-24T14:20:27.030Z,2.08
2018-05-24T14:22:54.467Z,2.00
2018-05-24T14:25:22.674Z,1.90
2018-05-24T14:27:50.142Z,1.90
2018-05-24T14:30:17.596Z,1.42
2018-05-24T14:32:45.054Z,1.60
2018-05-24T14:35:12.506Z,2.10
2018-05-24T14:37:39.955Z,1.75
2018-05-24T14:40:08.159Z,1.58
2018-05-24T14:42:35.622Z,1.90
2018-05-24T14:45:03.143Z,1.65
2018-05-24T14:47:31.369Z,1.65
2018-05-24T14:49:58.751Z,1.55
2018-05-24T14:52:26.212Z,2.00
2018-05-24T14:54:53.651Z,1.62
2018-05-24T14:57:21.114Z,1.83
2018-05-24T14:59:48.550Z,1.67
2018-05-24T15:02:16.768Z,1.90
2018-05-24T15:04:44.225Z,1.98
2018-05-24T15:07:11.679Z,2.10
2018-05-24T15:09:39.112Z,1.62
2018-05-24T15:12:07.346Z,1.45
2018-05-24T15:14:34.784Z,1.60
2018-05-24T15:17:02.241Z,1.62
2018-05-24T15:19:29.689Z,1.90
2018-05-24T15:21:57.899Z,4.68
2018-05-24T15:24:25.352Z,5.57
2018-05-24T15:26:52.821Z,5.53
2018-05-24T15:29:20.275Z,5.30
2018-05-24T15:31:47.726Z,5.95
2018-05-24T15:34:15.176Z,5.75
2018-05-24T15:36:43.376Z,6.78
2018-05-24T15:39:10.848Z,9.15
2018-05-24T15:41:38.311Z,9.13
2018-05-24T15:44:05.775Z,8.63
2018-05-24T15:46:33.227Z,12.15
2018-05-24T15:49:00.679Z,12.75
2018-05-24T15:51:28.894Z,11.82
2018-05-24T15:53:56.360Z,10.63
2018-05-24T15:56:23.812Z,9.57
2018-05-24T15:58:51.259Z,8.80
2018-05-24T16:01:18.712Z,8.23
2018-05-24T16:03:46.172Z,10.43
2018-05-24T16:06:13.644Z,8.00
2018-05-24T16:08:41.124Z,10.35
2018-05-24T16:11:08.573Z,9.88
2018-05-24T16:13:36.034Z,9.30
2018-05-24T16:16:03.495Z,10.57
2018-05-24T16:18:30.957Z,9.55
2018-05-24T16:20:58.409Z,8.40
2018-05-24T16:23:25.880Z,8.57
2018-05-24T16:25:53.343Z,7.55
2018-05-24T16:28:20.792Z,8.20
2018-05-24T16:30:48.242Z,7.45
2018-05-24T16:33:16.452Z,7.62
2018-05-24T16:35:43.902Z,8.00
2018-05-24T16:38:11.333Z,6.82
2018-05-24T16:40:39.555Z,5.37
2018-05-24T16:43:07.004Z,5.22
2018-05-24T16:45:34.464Z,4.68
2018-05-24T16:48:01.901Z,4.90
2018-05-24T16:50:30.127Z,4.15
2018-05-24T16:52:57.581Z,4.87
2018-05-24T16:55:25.040Z,4.95
2018-05-24T16:57:52.492Z,4.05
2018-05-24T17:00:19.953Z,4.05
2018-05-24T17:02:47.401Z,4.70
2018-05-24T17:05:15.631Z,3.70
2018-05-24T17:07:43.082Z,3.20
2018-05-24T17:10:10.542Z,3.17
2018-05-24T17:12:38.036Z,2.37
2018-05-24T17:15:05.454Z,2.65
2018-05-24T17:17:32.889Z,2.35
2018-05-24T17:20:01.124Z,2.60
2018-05-24T17:22:28.576Z,2.45
2018-05-24T17:24:56.036Z,2.80
2018-05-24T17:27:23.473Z,4.00
2018-05-24T17:29:50.956Z,6.37
2018-05-24T17:32:18.385Z,7.30
2018-05-24T17:34:46.612Z,7.80
2018-05-24T17:37:14.060Z,8.90
2018-05-24T17:39:41.521Z,9.57
2018-05-24T17:42:08.985Z,11.07
2018-05-24T17:44:36.439Z,10.48
2018-05-24T17:47:03.900Z,11.07
2018-05-24T17:49:31.337Z,11.10
2018-05-24T17:51:59.566Z,11.57
2018-05-24T17:54:27.029Z,11.77
2018-05-24T17:56:54.482Z,12.68
2018-05-24T17:59:21.948Z,11.48
2018-05-24T18:01:49.415Z,12.75
2018-05-24T18:04:16.881Z,11.90
2018-05-24T18:06:44.328Z,12.57
2018-05-24T18:09:11.779Z,12.27
2018-05-24T18:11:39.252Z,12.73
2018-05-24T18:14:06.707Z,12.60
2018-05-24T18:16:34.165Z,10.57
2018-05-24T18:19:01.629Z,12.32
2018-05-24T18:21:29.085Z,11.85
2018-05-24T18:23:56.533Z,11.68
2018-05-24T18:26:24.757Z,11.45
2018-05-24T18:28:52.210Z,10.43
2018-05-24T18:31:19.664Z,10.48
2018-05-24T18:33:47.108Z,10.25
2018-05-24T18:36:14.585Z,9.73
2018-05-24T18:38:42.068Z,9.32
2018-05-24T18:41:09.530Z,11.35
2018-05-24T18:43:36.993Z,11.02
2018-05-24T18:46:07.680Z,11.05
2018-05-24T18:48:35.895Z,10.43
2018-05-24T18:51:03.352Z,10.50
2018-05-24T18:53:30.808Z,10.27
2018-05-24T18:55:58.272Z,10.55
2018-05-24T18:58:25.733Z,9.77
2018-05-24T19:00:53.177Z,9.00
2018-05-24T19:03:21.425Z,10.65
2018-05-24T19:05:48.873Z,10.80
2018-05-24T19:08:16.333Z,10.95
2018-05-24T19:10:43.790Z,11.60
2018-05-24T19:13:11.251Z,10.93
2018-05-24T19:15:38.702Z,10.88
2018-05-24T19:18:06.177Z,12.20
2018-05-24T19:20:33.638Z,9.95
2018-05-24T19:23:01.099Z,11.20
2018-05-24T19:25:28.560Z,10.80
2018-05-24T19:27:56.014Z,11.57
2018-05-24T19:30:23.460Z,10.25
2018-05-24T19:32:50.925Z,10.20
2018-05-24T19:35:18.395Z,10.27
2018-05-24T19:37:45.872Z,10.80
2018-05-24T19:40:13.313Z,9.98
2018-05-24T19:42:40.775Z,11.40
2018-05-24T19:45:08.210Z,11.50
2018-05-24T19:47:36.429Z,10.18
2018-05-24T19:50:03.880Z,10.38
2018-05-24T19:52:31.348Z,11.32
2018-05-24T19:54:58.803Z,12.05
2018-05-24T19:57:26.267Z,10.20
2018-05-24T19:59:53.722Z,10.75
2018-05-24T20:02:21.187Z,11.32
2018-05-24T20:04:48.682Z,12.02
2018-05-24T20:07:16.145Z,12.77
2018-05-24T20:09:43.604Z,11.50
2018-05-24T20:12:11.071Z,11.35
2018-05-24T20:14:38.529Z,13.02
2018-05-24T20:17:05.977Z,12.60
2018-05-24T20:19:33.426Z,12.32
2018-05-24T20:22:00.876Z,11.88
2018-05-24T20:24:28.394Z,12.82
2018-05-24T20:26:55.840Z,12.10
2018-05-24T20:29:23.300Z,12.50
2018-05-24T20:31:50.774Z,12.60
2018-05-24T20:34:18.254Z,12.27
2018-05-24T20:36:45.704Z,11.80
2018-05-24T20:39:13.162Z,11.65
2018-05-24T20:41:40.629Z,11.38
2018-05-24T20:44:08.064Z,12.68
2018-05-24T20:46:35.522Z,12.32
2018-05-24T20:49:02.992Z,12.70
2018-05-24T20:51:30.441Z,13.35
2018-05-24T20:53:57.925Z,13.98
2018-05-24T20:56:25.395Z,14.40
2018-05-24T20:58:52.863Z,15.50
2018-05-24T21:01:20.312Z,16.17
2018-05-24T21:03:47.760Z,16.50
2018-05-24T21:06:15.225Z,17.73
2018-05-24T21:08:42.687Z,17.92
2018-05-24T21:11:10.148Z,17.40
2018-05-24T21:13:37.642Z,17.80
2018-05-24T21:16:05.064Z,18.12
2018-05-24T21:18:32.506Z,18.65
2018-05-24T21:20:59.976Z,18.67
2018-05-24T21:23:27.417Z,18.87
2018-05-24T21:25:55.652Z,17.70
2018-05-24T21:28:23.103Z,17.23
2018-05-24T21:30:50.556Z,18.87
2018-05-24T21:33:18.005Z,18.27
2018-05-24T21:35:45.447Z,17.75
2018-05-24T21:38:13.667Z,18.30
2018-05-24T21:40:41.133Z,19.08
2018-05-24T21:43:08.590Z,18.27
2018-05-24T21:45:36.088Z,16.60
2018-05-24T21:48:03.506Z,17.10
2018-05-24T21:50:30.953Z,16.33
2018-05-24T21:52:58.419Z,16.67
2018-05-24T21:55:25.948Z,17.20
2018-05-24T21:57:53.387Z,17.50
2018-05-24T22:00:20.855Z,17.05
2018-05-24T22:02:48.304Z,15.80
2018-05-24T22:07:49.636Z,17.20
2018-05-24T22:10:17.228Z,17.10
2018-05-24T22:12:44.667Z,16.65
2018-05-24T22:15:12.130Z,16.80
2018-05-24T22:17:39.580Z,16.77
2018-05-24T22:20:07.812Z,17.90
2018-05-24T22:22:35.250Z,17.60
2018-05-24T22:25:02.721Z,16.83
2018-05-24T22:27:30.167Z,15.90
2018-05-24T22:29:57.642Z,15.23
2018-05-24T22:32:25.086Z,18.15
2018-05-24T22:34:52.526Z,17.05
2018-05-24T22:37:20.753Z,18.40
2018-05-24T22:39:48.209Z,20.10
2018-05-24T22:42:15.663Z,18.62
2018-05-24T22:44:43.107Z,16.90
2018-05-24T22:47:10.574Z,16.25
2018-05-24T22:49:38.780Z,16.92
2018-05-24T22:52:06.241Z,18.05
2018-05-24T22:54:33.685Z,17.37
2018-05-24T22:57:01.199Z,18.02
2018-05-24T22:59:28.638Z,17.58
2018-05-24T23:01:56.809Z,16.85
2018-05-24T23:04:24.257Z,18.08
2018-05-24T23:06:52.573Z,16.25
2018-05-24T23:09:20.023Z,16.90
2018-05-24T23:11:47.482Z,17.12
2018-05-24T23:14:14.925Z,20.00
2018-05-24T23:16:43.144Z,18.23
2018-05-24T23:19:10.596Z,20.73
2018-05-24T23:21:38.058Z,18.42
2018-05-24T23:24:05.512Z,21.12
2018-05-24T23:26:32.969Z,21.23
2018-05-24T23:29:00.447Z,22.67
2018-05-24T23:31:27.899Z,21.85
2018-05-24T23:33:55.360Z,22.58
2018-05-24T23:36:22.802Z,23.90
2018-05-24T23:38:50.243Z,24.08
2018-05-24T23:41:17.732Z,23.80
2018-05-24T23:43:45.956Z,23.45
2018-05-24T23:46:13.384Z,21.50
2018-05-24T23:48:41.608Z,22.62
2018-05-24T23:51:09.065Z,22.98
2018-05-24T23:53:36.526Z,23.40
2018-05-24T23:56:03.968Z,22.60
2018-05-24T23:58:31.421Z,23.27
